Weatherford, Oklahoma
Current Conditions -  °F | °C
As of 12:15 PM on Wednesday 28 Jan 2015 (Local Time) from KOJA Reporting Station
Clear Clear  
Wind Chill: 64°   Ceiling: Unl
Heat Index: 64°   Visibility: 10mi
Dew Point: 41°   Wind: 10mph
Humidity: 42%   Direction: 220°SW
Pressure: 29.94"   Gusts: NA
Location:  35.53°N, 98.71°W
Report Text: KOJA 281815Z AUTO 22009KT 10SM CLR 18/05 A2994 RMK AO2
Loading
Personal Weather Stations






























Interactive Weather Map New forecast layout! Learn more

10-Day Weather Forecast

Advertisements
Track Severe Weather on mobile